Time;durP1;ratioP1;P1;durP2;ratioP2;P2;SDS_P1;SDS_P2;PMS_P1;PMS_P2;Temp;Humidity;BMP_temperature;BMP_pressure;BME280_temperature;BME280_humidity;BME280_pressure;Samples;Min_cycle;Max_cycle;Signal;HPM_P1;HPM_P2
2021/03/06 00:02:22;;;;;;;5.17;4.33;;;;;;;4.04;57.37;97558.47;5054317;28;20256;-56
2021/03/06 00:04:47;;;;;;;4.80;4.00;;;;;;;4.08;56.86;97561.56;5055314;28;20198;-61
2021/03/06 00:07:13;;;;;;;4.67;3.90;;;;;;;4.12;57.14;97571.50;5056349;28;20262;-61
2021/03/06 00:09:39;;;;;;;5.17;4.30;;;;;;;4.08;57.13;97564.97;5055109;28;20196;-60
2021/03/06 00:12:04;;;;;;;5.00;3.93;;;;;;;3.96;57.45;97563.63;5055716;28;20179;-56
2021/03/06 00:14:31;;;;;;;6.30;3.80;;;;;;;3.87;56.60;97564.56;5055528;28;20172;-61
2021/03/06 00:16:57;;;;;;;3.83;3.50;;;;;;;3.82;57.45;97553.00;5055094;28;20632;-55
2021/03/06 00:19:22;;;;;;;4.30;3.90;;;;;;;3.80;57.31;97557.53;5055393;28;20921;-61
2021/03/06 00:21:47;;;;;;;5.30;3.90;;;;;;;3.78;57.23;97557.69;5061687;28;20453;-55
2021/03/06 00:24:13;;;;;;;3.60;3.27;;;;;;;3.72;57.32;97557.47;5070198;28;20182;-57
2021/03/06 00:26:38;;;;;;;5.83;3.73;;;;;;;3.62;57.44;97564.56;5054520;28;20241;-61
2021/03/06 00:29:04;;;;;;;5.87;4.37;;;;;;;3.80;57.46;97562.72;5054813;28;20202;-61
2021/03/06 00:31:29;;;;;;;4.90;4.00;;;;;;;3.86;57.49;97560.31;5055138;28;20570;-61
2021/03/06 00:33:54;;;;;;;4.60;4.17;;;;;;;3.82;56.95;97563.38;5055154;28;20189;-55
2021/03/06 00:36:20;;;;;;;3.90;3.50;;;;;;;3.75;57.25;97559.78;5069188;28;20183;-56
2021/03/06 00:38:45;;;;;;;4.53;3.67;;;;;;;3.67;56.01;97562.31;5074981;28;20274;-55
2021/03/06 00:41:11;;;;;;;4.33;3.93;;;;;;;3.65;56.19;97557.28;5075125;28;20173;-55
2021/03/06 00:43:36;;;;;;;4.17;3.87;;;;;;;3.77;56.31;97553.44;5072938;28;20532;-55
2021/03/06 00:46:01;;;;;;;4.27;3.93;;;;;;;3.88;55.80;97552.34;5034692;28;20203;-56
2021/03/06 00:48:27;;;;;;;4.13;3.70;;;;;;;3.74;56.33;97558.13;5039049;28;20201;-57
2021/03/06 00:50:52;;;;;;;3.87;3.57;;;;;;;3.89;55.82;97556.59;5035012;28;20679;-61
2021/03/06 00:53:18;;;;;;;3.57;3.27;;;;;;;3.93;56.20;97563.13;5044784;28;20173;-56
2021/03/06 00:55:43;;;;;;;5.00;4.57;;;;;;;3.89;55.84;97556.59;5054892;28;20193;-61
2021/03/06 00:58:08;;;;;;;4.37;3.97;;;;;;;3.89;56.01;97557.44;5054305;28;20263;-55
2021/03/06 01:00:34;;;;;;;4.57;4.07;;;;;;;3.90;55.98;97556.44;5054687;28;20169;-55
2021/03/06 01:02:59;;;;;;;5.10;4.63;;;;;;;3.85;56.05;97557.88;5054661;28;20176;-61
2021/03/06 01:05:25;;;;;;;5.03;4.50;;;;;;;3.90;55.93;97563.41;5054377;28;20187;-55
2021/03/06 01:07:50;;;;;;;4.23;3.70;;;;;;;3.83;56.92;97550.22;5054040;28;20202;-56
2021/03/06 01:10:21;;;;;;;4.40;3.90;;;;;;;3.91;56.21;97552.84;5054139;28;20169;-55
2021/03/06 01:12:47;;;;;;;4.63;4.13;;;;;;;3.90;55.85;97550.41;5054374;28;20181;-56
2021/03/06 01:15:13;;;;;;;4.37;4.00;;;;;;;3.91;55.49;97546.88;5054579;28;20892;-61
2021/03/06 01:17:38;;;;;;;5.40;4.67;;;;;;;3.80;56.06;97550.56;5054006;28;20197;-56
2021/03/06 01:20:05;;;;;;;4.57;4.17;;;;;;;3.77;55.52;97545.66;5053879;28;20173;-55
2021/03/06 01:22:31;;;;;;;4.33;3.90;;;;;;;3.59;55.61;97549.25;5053088;28;20533;-61
2021/03/06 01:24:56;;;;;;;4.67;4.27;;;;;;;3.72;55.52;97541.88;5053810;28;20486;-56
2021/03/06 01:27:22;;;;;;;4.63;4.13;;;;;;;3.73;56.15;97552.09;5053663;28;20440;-56
2021/03/06 01:29:47;;;;;;;4.73;4.30;;;;;;;3.68;55.69;97546.56;5053828;28;20628;-61
2021/03/06 01:32:12;;;;;;;4.03;3.63;;;;;;;3.77;55.57;97543.03;5070481;28;20185;-56
2021/03/06 01:34:38;;;;;;;4.30;3.90;;;;;;;3.69;55.44;97548.22;5073991;28;20178;-55
2021/03/06 01:37:03;;;;;;;5.20;4.70;;;;;;;3.71;55.92;97538.47;5073491;28;20639;-55
2021/03/06 01:39:29;;;;;;;4.80;4.13;;;;;;;3.65;56.08;97541.69;5074000;28;20172;-61
2021/03/06 01:41:54;;;;;;;4.10;3.80;;;;;;;3.73;55.37;97540.91;5073765;28;20243;-55
2021/03/06 01:44:20;;;;;;;4.37;3.97;;;;;;;3.79;56.00;97542.88;5059761;28;20184;-61
2021/03/06 01:46:45;;;;;;;6.27;4.50;;;;;;;3.77;55.33;97543.03;5053160;28;20180;-56
2021/03/06 01:49:11;;;;;;;4.50;4.10;;;;;;;3.84;55.28;97544.06;5053382;28;20208;-56
2021/03/06 01:51:36;;;;;;;5.00;3.93;;;;;;;3.74;55.38;97545.97;5053885;28;20177;-61
2021/03/06 01:54:04;;;;;;;4.63;4.23;;;;;;;3.69;55.14;97543.00;5053702;28;20541;-62
2021/03/06 01:56:31;;;;;;;4.90;4.40;;;;;;;3.83;55.14;97541.63;5053469;28;20181;-55
2021/03/06 01:58:58;;;;;;;4.50;4.20;;;;;;;3.77;55.65;97542.22;5054424;28;20444;-56
2021/03/06 02:01:23;;;;;;;3.60;3.30;;;;;;;3.71;55.30;97546.28;5053626;28;20410;-61
2021/03/06 02:03:48;;;;;;;5.87;4.80;;;;;;;3.75;54.81;97542.38;5053231;28;20431;-61
2021/03/06 02:06:15;;;;;;;5.33;4.50;;;;;;;3.73;55.23;97531.31;5052914;28;20180;-61
2021/03/06 02:08:40;;;;;;;4.80;4.27;;;;;;;3.73;55.12;97527.94;5053284;28;20264;-61
2021/03/06 02:11:06;;;;;;;4.57;4.27;;;;;;;3.72;54.73;97532.31;5053437;28;20411;-55
2021/03/06 02:13:52;;;;;;;5.00;4.50;;;;;;;3.77;54.90;97529.22;5059532;28;20529;-61
2021/03/06 02:16:40;;;;;;;4.93;4.53;;;;;;;3.83;54.49;97528.63;5073210;28;20176;-56
2021/03/06 02:19:28;;;;;;;4.27;3.90;;;;;;;3.65;54.46;97523.50;5073284;28;20491;-56
2021/03/06 02:22:14;;;;;;;5.40;4.10;;;;;;;3.57;54.46;97523.44;5054617;28;20434;-61
2021/03/06 02:24:55;;;;;;;5.00;4.10;;;;;;;3.55;54.17;97519.38;5053085;28;20408;-61
2021/03/06 02:27:28;;;;;;;5.03;4.20;;;;;;;3.58;54.71;97521.66;5052552;28;20490;-56
2021/03/06 02:29:59;;;;;;;5.03;4.13;;;;;;;3.56;53.89;97514.03;5053101;28;20476;-56
2021/03/06 02:32:24;;;;;;;5.43;3.73;;;;;;;3.49;53.86;97514.78;5055192;28;20419;-61
2021/03/06 02:35:03;;;;;;;5.60;3.57;;;;;;;3.52;53.94;97517.91;5058292;28;20433;-56
2021/03/06 02:37:32;;;;;;;5.10;4.53;;;;;;;3.58;53.91;97517.28;5056949;28;20581;-55
2021/03/06 02:39:58;;;;;;;4.60;4.30;;;;;;;3.55;53.83;97516.78;5061339;28;20971;-61
2021/03/06 02:42:26;;;;;;;4.43;4.13;;;;;;;3.52;53.57;97510.09;5058985;28;20777;-61
2021/03/06 02:44:52;;;;;;;4.93;3.97;;;;;;;3.50;53.17;97514.63;5056991;28;20925;-61
2021/03/06 02:47:18;;;;;;;5.03;4.73;;;;;;;3.48;53.17;97513.16;5056798;28;20477;-61
2021/03/06 02:49:49;;;;;;;5.00;4.60;;;;;;;3.28;53.55;97516.94;5057215;28;20958;-61
2021/03/06 02:52:14;;;;;;;4.43;4.03;;;;;;;3.24;52.58;97508.63;5057110;28;20169;-56
2021/03/06 02:54:40;;;;;;;5.73;3.93;;;;;;;3.14;53.28;97510.47;5069233;28;20515;-56
2021/03/06 02:57:05;;;;;;;4.40;4.00;;;;;;;3.18;52.93;97511.81;5063068;28;20237;-56
2021/03/06 02:59:37;;;;;;;4.50;4.10;;;;;;;3.20;53.30;97514.25;5059676;28;20174;-55
2021/03/06 03:02:37;;;;;;;4.13;3.83;;;;;;;3.31;52.37;97512.25;5077002;28;20182;-56
2021/03/06 03:05:08;;;;;;;4.80;4.40;;;;;;;3.14;52.28;97515.69;5075789;28;20410;-56
2021/03/06 03:07:37;;;;;;;4.77;4.37;;;;;;;2.95;53.07;97508.88;5076342;28;20431;-62
2021/03/06 03:10:09;;;;;;;4.20;3.90;;;;;;;3.05;52.92;97508.78;5057027;28;20850;-56
2021/03/06 03:12:41;;;;;;;4.60;4.20;;;;;;;3.10;52.64;97509.16;5056631;28;20420;-61
2021/03/06 03:15:19;;;;;;;4.23;3.80;;;;;;;3.06;52.86;97502.66;5056851;28;20883;-56
2021/03/06 03:17:47;;;;;;;3.70;3.50;;;;;;;3.09;53.36;97504.94;5056206;28;20424;-61
2021/03/06 03:20:15;;;;;;;4.13;3.83;;;;;;;2.97;53.68;97506.16;5056799;28;20501;-56
2021/03/06 03:22:46;;;;;;;6.07;4.47;;;;;;;2.97;53.66;97499.16;5057485;28;20523;-56
2021/03/06 03:25:13;;;;;;;4.50;4.10;;;;;;;3.05;53.53;97501.84;5056322;28;20444;-56
2021/03/06 03:27:42;;;;;;;4.53;3.97;;;;;;;2.95;53.37;97503.69;5055905;28;20496;-61
2021/03/06 03:30:12;;;;;;;4.90;4.40;;;;;;;3.01;54.33;97502.25;5056260;28;20455;-56
2021/03/06 03:32:39;;;;;;;5.70;4.53;;;;;;;3.06;54.51;97494.88;5056225;28;20415;-59
2021/03/06 03:35:06;;;;;;;5.17;4.67;;;;;;;3.12;53.96;97502.03;5056371;28;20417;-61
2021/03/06 03:37:35;;;;;;;4.73;4.33;;;;;;;3.03;54.04;97508.13;5059071;28;20442;-61
2021/03/06 03:40:03;;;;;;;4.90;4.40;;;;;;;3.04;53.95;97502.78;5055749;28;20413;-62
2021/03/06 03:42:29;;;;;;;5.30;4.80;;;;;;;2.98;55.21;97500.81;5055578;28;20414;-61
2021/03/06 03:44:54;;;;;;;4.67;4.20;;;;;;;3.03;55.11;97502.94;5054520;28;20521;-56
2021/03/06 03:47:21;;;;;;;5.50;4.97;;;;;;;2.99;55.12;97512.81;5055642;28;20200;-61
2021/03/06 03:49:46;;;;;;;4.83;4.20;;;;;;;2.92;55.63;97511.78;5057947;28;20211;-57
2021/03/06 03:52:12;;;;;;;4.97;4.47;;;;;;;3.03;54.71;97508.13;5036474;28;20427;-57
2021/03/06 03:54:40;;;;;;;4.97;4.50;;;;;;;3.02;55.11;97514.28;5055790;28;20631;-57
2021/03/06 03:57:08;;;;;;;5.03;4.63;;;;;;;2.92;55.54;97514.38;5055511;28;20412;-56
2021/03/06 03:59:33;;;;;;;4.70;4.30;;;;;;;2.91;55.88;97517.94;5055996;28;20426;-61
2021/03/06 04:01:59;;;;;;;5.73;4.50;;;;;;;2.87;55.72;97516.59;5056369;28;20802;-55
2021/03/06 04:04:28;;;;;;;4.63;4.23;;;;;;;2.75;55.69;97515.22;5055732;28;20183;-56
2021/03/06 04:06:55;;;;;;;6.00;4.23;;;;;;;2.87;56.09;97520.97;5055427;28;20221;-61
2021/03/06 04:09:21;;;;;;;5.00;4.60;;;;;;;2.84;55.29;97527.28;5055647;28;20843;-61
2021/03/06 04:11:46;;;;;;;4.80;4.40;;;;;;;2.83;55.47;97530.84;5055591;28;20416;-55
2021/03/06 04:14:11;;;;;;;4.43;4.13;;;;;;;2.71;55.56;97528.59;5072982;28;20202;-56
2021/03/06 04:16:37;;;;;;;4.03;3.73;;;;;;;2.53;56.76;97532.97;5056134;28;20301;-56
2021/03/06 04:19:03;;;;;;;7.60;4.97;;;;;;;2.67;56.06;97535.03;5055491;28;20210;-61
2021/03/06 04:21:28;;;;;;;5.30;4.03;;;;;;;2.77;55.91;97536.59;5055450;28;20256;-56
2021/03/06 04:23:53;;;;;;;5.03;4.53;;;;;;;2.79;55.66;97533.88;5057196;28;20633;-56
2021/03/06 04:26:19;;;;;;;4.67;4.27;;;;;;;2.77;55.64;97530.63;5075624;28;20178;-61
2021/03/06 04:28:45;;;;;;;4.60;4.23;;;;;;;2.84;55.50;97529.88;5075230;28;20250;-62
2021/03/06 04:31:10;;;;;;;4.37;4.07;;;;;;;2.76;55.94;97529.78;5058860;28;20173;-56
2021/03/06 04:33:36;;;;;;;5.47;4.97;;;;;;;2.76;56.52;97534.16;5055052;28;20447;-62
2021/03/06 04:36:02;;;;;;;5.10;4.57;;;;;;;2.87;55.90;97531.34;5066096;28;20661;-56
2021/03/06 04:38:27;;;;;;;5.07;4.40;;;;;;;2.77;55.77;97536.59;5075069;28;20184;-62
2021/03/06 04:40:52;;;;;;;6.20;5.00;;;;;;;2.38;56.73;97529.22;5075010;28;20766;-56
2021/03/06 04:43:18;;;;;;;4.37;4.07;;;;;;;2.20;57.83;97536.16;5072286;28;20179;-56
2021/03/06 04:45:43;;;;;;;5.10;4.70;;;;;;;2.33;57.19;97531.44;5054790;28;20173;-62
2021/03/06 04:48:09;;;;;;;5.33;4.80;;;;;;;2.32;57.58;97538.41;5054153;28;20266;-56
2021/03/06 04:50:34;;;;;;;5.60;4.90;;;;;;;2.33;57.60;97534.03;5061900;28;20566;-62
2021/03/06 04:52:59;;;;;;;8.03;5.30;;;;;;;2.26;57.98;97538.19;5074971;28;20174;-61
2021/03/06 04:55:25;;;;;;;6.87;4.70;;;;;;;2.22;58.16;97542.03;5074366;28;20178;-56
2021/03/06 04:57:50;;;;;;;5.13;4.63;;;;;;;2.30;58.41;97531.75;5074327;28;20199;-61
2021/03/06 05:00:16;;;;;;;4.53;4.13;;;;;;;2.43;57.83;97540.00;5065940;28;20183;-62
2021/03/06 05:02:42;;;;;;;5.63;4.60;;;;;;;2.37;57.78;97543.16;5074677;28;20185;-61
2021/03/06 05:05:08;;;;;;;5.50;4.80;;;;;;;2.35;57.50;97540.72;5072649;28;20846;-62
2021/03/06 05:07:34;;;;;;;4.90;4.50;;;;;;;2.37;57.84;97545.75;5052750;28;20561;-56
2021/03/06 05:09:59;;;;;;;4.40;4.00;;;;;;;2.40;57.56;97537.69;5057869;28;20460;-56
2021/03/06 05:12:25;;;;;;;7.60;5.30;;;;;;;2.31;58.02;97538.56;5074795;28;20694;-62
2021/03/06 05:14:50;;;;;;;5.60;5.10;;;;;;;2.37;58.52;97535.41;5074573;28;20171;-61
2021/03/06 05:17:16;;;;;;;5.23;4.73;;;;;;;2.43;57.29;97538.22;5073844;28;20202;-56
2021/03/06 05:19:41;;;;;;;4.90;4.40;;;;;;;2.18;58.59;97545.84;5074411;28;20166;-61
2021/03/06 05:22:07;;;;;;;5.00;4.50;;;;;;;1.90;58.62;97551.03;5052708;28;20293;-61
2021/03/06 05:24:32;;;;;;;5.33;4.83;;;;;;;1.94;58.67;97544.59;5054348;28;20237;-55
2021/03/06 05:27:03;;;;;;;4.90;4.00;;;;;;;1.86;59.66;97546.28;5053829;28;20179;-62
2021/03/06 05:29:34;;;;;;;4.57;4.20;;;;;;;1.80;59.73;97537.31;5055299;28;20725;-56
2021/03/06 05:32:00;;;;;;;5.90;5.03;;;;;;;1.93;59.36;97535.22;5071272;28;20829;-56
2021/03/06 05:34:26;;;;;;;6.37;5.60;;;;;;;1.88;59.29;97546.97;5073774;28;20930;-62
2021/03/06 05:36:52;;;;;;;6.43;4.60;;;;;;;1.74;59.91;97548.22;5073618;28;20405;-56
2021/03/06 05:39:18;;;;;;;5.00;4.60;;;;;;;1.60;60.20;97548.69;5073820;28;20252;-56
2021/03/06 05:41:45;;;;;;;5.17;4.77;;;;;;;1.70;60.56;97539.09;5054703;28;20279;-63
2021/03/06 05:44:11;;;;;;;4.73;4.33;;;;;;;1.67;61.02;97552.34;5070715;28;20417;-55
2021/03/06 05:46:37;;;;;;;7.17;5.50;;;;;;;1.60;60.34;97546.09;5054998;28;20753;-56
2021/03/06 05:49:03;;;;;;;5.03;4.63;;;;;;;1.53;61.75;97546.78;5053758;28;20457;-62
2021/03/06 05:51:33;;;;;;;5.30;4.80;;;;;;;1.34;61.37;97549.44;5053531;28;20188;-61
2021/03/06 05:54:01;;;;;;;5.03;4.63;;;;;;;1.41;61.44;97550.50;5053924;28;20511;-56
2021/03/06 05:56:27;;;;;;;5.90;4.53;;;;;;;1.53;60.50;97547.59;5053282;28;20819;-56
2021/03/06 05:58:54;;;;;;;4.90;4.50;;;;;;;1.72;60.56;97542.34;5070571;28;20444;-61
2021/03/06 06:01:20;;;;;;;5.40;4.57;;;;;;;1.71;60.18;97543.34;5055360;28;20183;-56
2021/03/06 06:03:46;;;;;;;5.40;4.80;;;;;;;1.71;59.62;97550.28;5053491;28;20475;-61
2021/03/06 06:06:13;;;;;;;6.70;4.77;;;;;;;1.63;59.65;97540.63;5052790;28;21139;-61
2021/03/06 06:08:40;;;;;;;4.53;4.23;;;;;;;1.59;60.22;97538.47;5053366;28;20966;-62
2021/03/06 06:11:05;;;;;;;5.17;4.73;;;;;;;1.66;60.07;97535.19;5059542;28;20512;-56
2021/03/06 06:13:31;;;;;;;5.97;5.00;;;;;;;1.67;59.77;97539.38;5073605;28;20495;-62
2021/03/06 06:15:56;;;;;;;5.47;4.93;;;;;;;1.75;59.06;97542.09;5056523;28;20214;-63
2021/03/06 06:18:21;;;;;;;5.93;5.10;;;;;;;1.81;59.21;97541.50;5053446;28;20195;-61
2021/03/06 06:20:47;;;;;;;5.33;4.83;;;;;;;1.85;59.22;97544.63;5053528;28;20242;-56
2021/03/06 06:23:18;;;;;;;5.17;4.77;;;;;;;1.79;58.79;97543.41;5053332;28;20281;-61
2021/03/06 06:25:44;;;;;;;6.40;5.50;;;;;;;1.89;58.07;97543.41;5060507;28;20174;-56
2021/03/06 06:28:10;;;;;;;4.97;4.57;;;;;;;1.93;58.16;97553.34;5072777;28;20428;-56
2021/03/06 06:30:35;;;;;;;5.30;4.90;;;;;;;1.94;58.16;97549.78;5057360;28;20426;-56
2021/03/06 06:33:02;;;;;;;5.33;4.83;;;;;;;2.00;58.37;97544.03;5052976;28;20184;-56
2021/03/06 06:35:27;;;;;;;5.83;5.20;;;;;;;2.12;57.01;97544.66;5053408;28;20199;-61
2021/03/06 06:38:02;;;;;;;5.07;4.67;;;;;;;2.04;57.91;97542.81;5052719;28;20458;-62
2021/03/06 06:40:31;;;;;;;4.90;4.37;;;;;;;2.02;58.15;97554.25;5069349;28;20181;-56
2021/03/06 06:42:58;;;;;;;5.37;4.87;;;;;;;2.09;57.36;97556.13;5073261;28;20748;-56
2021/03/06 06:45:24;;;;;;;6.13;5.23;;;;;;;2.15;57.77;97551.34;5055945;28;20440;-62
2021/03/06 06:47:52;;;;;;;5.17;4.63;;;;;;;1.91;57.47;97563.03;5052122;28;20579;-62
2021/03/06 06:50:38;;;;;;;5.30;4.80;;;;;;;2.01;58.52;97557.81;5053148;28;20483;-62
2021/03/06 06:53:04;;;;;;;5.00;4.50;;;;;;;1.97;58.51;97554.69;5053335;28;20500;-56
2021/03/06 06:55:43;;;;;;;6.20;5.63;;;;;;;1.98;59.08;97555.50;5053065;28;20525;-62
2021/03/06 06:58:09;;;;;;;5.13;4.73;;;;;;;2.12;57.99;97552.44;5052467;28;20244;-62
2021/03/06 07:00:35;;;;;;;6.77;4.87;;;;;;;2.18;58.65;97554.44;5052731;28;20422;-56
2021/03/06 07:03:03;;;;;;;6.40;5.70;;;;;;;2.24;57.92;97560.84;5052929;28;20182;-62
2021/03/06 07:05:31;;;;;;;6.17;5.67;;;;;;;2.18;58.47;97557.03;5053275;28;20901;-59
2021/03/06 07:08:01;;;;;;;5.13;4.73;;;;;;;2.04;59.12;97565.28;5072003;28;20469;-61
2021/03/06 07:10:37;;;;;;;7.57;5.10;;;;;;;1.87;58.94;97566.84;5072588;28;20450;-58
2021/03/06 07:13:06;;;;;;;5.73;5.13;;;;;;;2.00;58.45;97561.34;5071557;28;20456;-61
2021/03/06 07:15:33;;;;;;;6.57;5.80;;;;;;;2.14;58.64;97573.84;5055326;28;20453;-62
2021/03/06 07:18:01;;;;;;;6.00;5.30;;;;;;;2.32;58.43;97574.69;5053279;28;20530;-62
2021/03/06 07:20:26;;;;;;;6.70;5.93;;;;;;;2.40;58.58;97576.56;5056444;28;20426;-62
2021/03/06 07:22:53;;;;;;;5.80;5.27;;;;;;;2.30;57.89;97583.59;5056603;28;20409;-57
2021/03/06 07:25:21;;;;;;;5.57;5.07;;;;;;;2.29;58.76;97587.13;5056580;28;20686;-61
2021/03/06 07:27:46;;;;;;;5.37;4.97;;;;;;;2.46;58.42;97586.38;5056024;28;20516;-61
2021/03/06 07:30:14;;;;;;;6.00;5.50;;;;;;;2.47;58.45;97594.00;5056292;28;20604;-57
2021/03/06 07:32:41;;;;;;;6.67;5.87;;;;;;;2.47;57.99;97590.59;5056291;28;20175;-57
2021/03/06 07:35:08;;;;;;;6.80;5.23;;;;;;;2.53;57.81;97597.81;5063047;28;20430;-62
2021/03/06 07:37:35;;;;;;;7.00;5.40;;;;;;;2.66;57.54;97590.50;5055290;28;20484;-57
2021/03/06 07:40:12;;;;;;;5.27;4.83;;;;;;;2.64;57.83;97589.81;5056115;28;20840;-62
2021/03/06 07:42:43;;;;;;;7.43;5.80;;;;;;;2.64;57.55;97601.03;5056184;28;20501;-62
2021/03/06 07:45:11;;;;;;;6.83;6.23;;;;;;;2.69;57.24;97597.97;5056180;28;20447;-56
2021/03/06 07:47:39;;;;;;;5.60;5.00;;;;;;;2.63;57.64;97598.56;5055641;28;20527;-62
2021/03/06 07:50:09;;;;;;;6.90;5.90;;;;;;;2.74;58.55;97604.38;5055779;28;20468;-57
2021/03/06 07:52:37;;;;;;;6.37;5.77;;;;;;;2.80;56.85;97595.19;5056143;28;20411;-56
2021/03/06 07:55:08;;;;;;;6.37;5.77;;;;;;;2.87;56.97;97610.03;5056226;28;20497;-55
2021/03/06 07:58:03;;;;;;;6.00;5.50;;;;;;;2.91;57.43;97608.78;5055524;28;20423;-61
2021/03/06 08:00:51;;;;;;;7.70;5.57;;;;;;;3.17;56.50;97608.81;5056023;28;20411;-62
2021/03/06 08:03:34;;;;;;;5.83;5.23;;;;;;;2.92;58.03;97610.38;5056176;28;20422;-56
2021/03/06 08:06:22;;;;;;;6.37;5.33;;;;;;;2.78;56.95;97605.72;5054903;28;20427;-58
2021/03/06 08:08:47;;;;;;;5.80;5.10;;;;;;;2.60;59.16;97612.66;5072371;28;20474;-57
2021/03/06 08:11:35;;;;;;;7.43;5.90;;;;;;;2.81;58.20;97607.16;5054330;28;20422;-55
2021/03/06 08:14:05;;;;;;;5.77;5.27;;;;;;;2.97;57.58;97609.97;5055630;28;20179;-56
2021/03/06 08:16:31;;;;;;;6.53;5.90;;;;;;;2.95;58.00;97619.66;5056273;28;20511;-55
2021/03/06 08:19:09;;;;;;;7.50;6.37;;;;;;;3.13;57.38;97617.91;5055362;28;20423;-61
2021/03/06 08:21:44;;;;;;;7.03;6.40;;;;;;;3.29;56.53;97625.84;5055556;28;20412;-56
2021/03/06 08:24:16;;;;;;;7.10;5.50;;;;;;;3.39;56.97;97625.75;5055050;28;20928;-55
2021/03/06 08:27:03;;;;;;;6.13;5.63;;;;;;;3.61;56.64;97622.66;5054500;28;20434;-62
2021/03/06 08:29:29;;;;;;;7.20;6.30;;;;;;;3.60;56.72;97618.44;5055914;28;20522;-56
2021/03/06 08:31:58;;;;;;;9.10;6.20;;;;;;;3.71;56.82;97628.59;5075204;28;20448;-56
2021/03/06 08:34:45;;;;;;;7.43;6.07;;;;;;;3.64;56.44;97623.19;5075080;28;20563;-55
2021/03/06 08:37:19;;;;;;;8.17;5.90;;;;;;;3.75;56.82;97622.94;5068741;28;20451;-55
2021/03/06 08:39:51;;;;;;;6.27;5.63;;;;;;;3.75;56.52;97622.16;5055301;28;20410;-61
2021/03/06 08:42:22;;;;;;;9.10;5.77;;;;;;;3.63;56.65;97625.94;5053435;28;20420;-60
2021/03/06 08:44:50;;;;;;;7.90;7.03;;;;;;;3.85;56.44;97630.66;5071184;28;20423;-61
2021/03/06 08:47:29;;;;;;;7.40;6.70;;;;;;;4.08;55.67;97632.59;5074785;28;20895;-56
2021/03/06 08:49:57;;;;;;;6.60;6.00;;;;;;;3.97;56.10;97625.03;5073666;28;20450;-61
2021/03/06 08:52:23;;;;;;;7.40;6.70;;;;;;;4.05;55.73;97626.88;5074985;28;20904;-55
2021/03/06 08:54:49;;;;;;;7.27;5.63;;;;;;;4.10;55.64;97625.44;5072895;28;20424;-62
2021/03/06 08:57:24;;;;;;;6.20;5.60;;;;;;;4.14;54.67;97625.97;5057704;28;20439;-56
2021/03/06 08:59:50;;;;;;;8.30;6.20;;;;;;;4.06;55.75;97638.91;5054772;28;20173;-56
2021/03/06 09:02:21;;;;;;;6.20;5.40;;;;;;;4.13;54.96;97632.13;5054743;28;20903;-55
2021/03/06 09:04:58;;;;;;;6.30;5.63;;;;;;;4.19;54.12;97627.13;5054818;28;20165;-61
2021/03/06 09:07:40;;;;;;;6.13;5.40;;;;;;;4.19;54.43;97631.50;5054171;28;20428;-56
2021/03/06 09:10:18;;;;;;;6.40;5.80;;;;;;;4.50;53.12;97624.84;5054340;28;20456;-61
2021/03/06 09:12:45;;;;;;;5.97;5.07;;;;;;;4.56;53.25;97631.19;5034668;28;20422;-55
2021/03/06 09:15:12;;;;;;;5.13;4.63;;;;;;;4.51;50.10;97626.44;5035074;28;20417;-58
2021/03/06 09:17:38;;;;;;;5.60;4.67;;;;;;;4.55;52.15;97630.38;5053882;28;20447;-59
2021/03/06 09:20:06;;;;;;;7.20;5.57;;;;;;;4.74;50.77;97621.50;5054500;28;20419;-61
2021/03/06 09:22:46;;;;;;;5.70;5.20;;;;;;;4.71;50.27;97614.03;5054252;28;20460;-56
2021/03/06 09:25:13;;;;;;;5.63;4.87;;;;;;;4.70;52.28;97622.78;5054320;28;20495;-61
2021/03/06 09:27:46;;;;;;;5.50;4.43;;;;;;;4.99;50.53;97618.00;5053671;28;20457;-55
2021/03/06 09:30:21;;;;;;;5.70;4.93;;;;;;;4.89;48.99;97623.31;5053462;28;20453;-61
2021/03/06 09:32:47;;;;;;;5.17;4.70;;;;;;;4.97;49.80;97620.75;5054309;28;20404;-56
2021/03/06 09:35:14;;;;;;;5.20;4.73;;;;;;;4.98;48.43;97617.16;5054904;28;20429;-56
2021/03/06 09:37:39;;;;;;;4.97;4.67;;;;;;;5.25;48.78;97610.88;5053690;28;20198;-61
2021/03/06 09:40:18;;;;;;;6.30;5.70;;;;;;;5.60;48.29;97607.16;5054074;28;20429;-55
2021/03/06 09:42:44;;;;;;;5.03;4.53;;;;;;;5.78;48.37;97605.97;5054883;28;20170;-60
2021/03/06 09:45:10;;;;;;;5.67;4.97;;;;;;;5.84;48.73;97612.34;5073809;28;20412;-55
2021/03/06 09:47:35;;;;;;;5.43;5.00;;;;;;;5.96;48.11;97609.25;5073549;28;20275;-60
2021/03/06 09:50:01;;;;;;;5.60;5.10;;;;;;;6.20;46.84;97606.59;5067467;28;20954;-55
2021/03/06 09:52:33;;;;;;;5.10;4.70;;;;;;;6.27;47.29;97616.38;5053907;28;20266;-56
2021/03/06 09:54:59;;;;;;;5.47;5.00;;;;;;;6.39;45.60;97605.41;5053521;28;20429;-60
2021/03/06 09:57:27;;;;;;;4.63;4.23;;;;;;;6.47;47.32;97604.56;5062483;28;20445;-56
2021/03/06 09:59:52;;;;;;;5.87;5.37;;;;;;;6.65;47.37;97610.34;5062872;28;20191;-60
2021/03/06 10:02:22;;;;;;;5.20;4.70;;;;;;;6.93;45.96;97608.91;5053472;28;20436;-61
2021/03/06 10:04:49;;;;;;;6.00;5.20;;;;;;;7.14;44.11;97603.84;5053573;28;20617;-55
2021/03/06 10:07:15;;;;;;;6.47;5.87;;;;;;;7.16;44.18;97607.94;5053058;28;20406;-61
2021/03/06 10:09:41;;;;;;;8.23;6.63;;;;;;;7.41;44.79;97608.56;5069067;28;20450;-60
2021/03/06 10:12:15;;;;;;;6.87;4.50;;;;;;;7.32;42.72;97599.97;5061896;28;20425;-55
2021/03/06 10:14:41;;;;;;;4.93;4.53;;;;;;;7.58;42.20;97597.00;5070733;28;20474;-60
2021/03/06 10:17:09;;;;;;;5.10;4.70;;;;;;;7.79;43.63;97593.72;5052895;28;20514;-56
2021/03/06 10:19:49;;;;;;;5.20;4.47;;;;;;;7.52;42.54;97599.53;5053414;28;20518;-61
2021/03/06 10:22:15;;;;;;;5.73;5.13;;;;;;;7.63;41.61;97599.91;5053458;28;20398;-61
2021/03/06 10:24:55;;;;;;;5.40;4.67;;;;;;;7.73;41.66;97610.94;5053478;28;20437;-61
2021/03/06 10:27:38;;;;;;;6.13;5.13;;;;;;;7.69;42.08;97599.19;5057841;28;20446;-61
2021/03/06 10:30:22;;;;;;;5.73;4.80;;;;;;;7.73;43.71;97597.88;5065221;28;20467;-56
2021/03/06 10:32:55;;;;;;;5.13;4.40;;;;;;;7.65;42.30;97592.69;5053267;28;20431;-56
2021/03/06 10:35:34;;;;;;;6.10;5.40;;;;;;;7.79;41.79;97596.34;5052953;28;20431;-60
2021/03/06 10:38:01;;;;;;;5.70;4.73;;;;;;;7.77;42.18;97593.88;5052783;28;20431;-55
2021/03/06 10:40:50;;;;;;;4.60;4.20;;;;;;;7.94;41.20;97598.00;5049111;28;20510;-61
2021/03/06 10:43:33;;;;;;;4.97;4.53;;;;;;;7.95;40.27;97602.22;5065094;28;21030;-56
2021/03/06 10:46:15;;;;;;;4.47;4.17;;;;;;;8.14;40.69;97604.34;5069264;28;20435;-60
2021/03/06 10:48:50;;;;;;;4.53;4.23;;;;;;;8.19;40.45;97586.28;5069555;28;20451;-62
2021/03/06 10:51:16;;;;;;;5.30;4.80;;;;;;;8.40;39.54;97597.88;5049473;28;20436;-59
2021/03/06 10:53:42;;;;;;;4.07;3.77;;;;;;;8.29;38.30;97599.97;5051650;28;20428;-61
2021/03/06 10:56:19;;;;;;;4.57;4.17;;;;;;;8.37;39.15;97590.38;5054283;28;20234;-57
2021/03/06 10:58:47;;;;;;;4.80;4.40;;;;;;;8.27;39.82;97599.31;5053284;28;20804;-60
2021/03/06 11:01:15;;;;;;;5.90;4.53;;;;;;;8.48;38.96;97590.72;5053522;28;20473;-60
2021/03/06 11:03:42;;;;;;;4.90;4.50;;;;;;;8.49;39.85;97584.50;5052932;28;21116;-58
2021/03/06 11:06:07;;;;;;;4.47;4.17;;;;;;;8.40;40.02;97590.00;5053024;28;21005;-58
2021/03/06 11:08:33;;;;;;;4.90;4.50;;;;;;;8.69;38.38;97580.31;5053463;28;20485;-59
2021/03/06 11:10:58;;;;;;;7.07;4.40;;;;;;;8.73;39.63;97588.63;5053134;28;20206;-59
2021/03/06 11:13:37;;;;;;;8.63;4.70;;;;;;;8.97;37.98;97577.81;5053297;28;20165;-60
2021/03/06 11:16:03;;;;;;;6.10;5.13;;;;;;;9.15;37.28;97575.56;5052506;28;20494;-54
2021/03/06 11:18:28;;;;;;;4.73;4.37;;;;;;;9.36;38.38;97572.97;5053078;28;20941;-65
2021/03/06 11:20:53;;;;;;;6.67;4.30;;;;;;;9.40;39.05;97570.78;5058395;28;20179;-58
2021/03/06 11:23:19;;;;;;;4.80;4.30;;;;;;;9.12;38.18;97560.22;5071877;28;20298;-56
2021/03/06 11:25:44;;;;;;;5.37;4.93;;;;;;;9.28;37.31;97571.28;5053526;28;20180;-62
2021/03/06 11:28:13;;;;;;;4.63;4.23;;;;;;;9.51;36.80;97562.41;5052007;28;20222;-59
2021/03/06 11:30:41;;;;;;;4.73;4.23;;;;;;;9.67;36.44;97572.63;5051118;28;20180;-58
2021/03/06 11:33:12;;;;;;;4.73;4.33;;;;;;;9.62;36.14;97562.69;5052448;28;20476;-55
2021/03/06 11:35:39;;;;;;;4.60;4.17;;;;;;;9.76;35.21;97561.81;5058969;28;20417;-59
2021/03/06 11:38:09;;;;;;;3.80;3.50;;;;;;;9.73;34.89;97564.81;5072252;28;20440;-61
2021/03/06 11:40:37;;;;;;;4.37;4.07;;;;;;;9.62;35.88;97561.91;5071965;28;20906;-55
2021/03/06 11:43:03;;;;;;;3.87;3.57;;;;;;;9.93;35.60;97552.63;5071092;28;20406;-55
2021/03/06 11:45:29;;;;;;;4.77;4.37;;;;;;;9.95;36.19;97558.50;5052562;28;20821;-57
2021/03/06 11:47:55;;;;;;;4.40;4.10;;;;;;;10.26;36.49;97555.50;5051459;28;20448;-56
2021/03/06 11:50:24;;;;;;;4.90;4.50;;;;;;;10.17;37.74;97552.22;5067159;28;20602;-57